Time;durP1;ratioP1;P1;durP2;ratioP2;P2;SDS_P1;SDS_P2;PMS_P1;PMS_P2;Temp;Humidity;BMP_temperature;BMP_pressure;BME280_temperature;BME280_humidity;BME280_pressure;Samples;Min_cycle;Max_cycle;Signal;HPM_P1;HPM_P2
2021/12/22 00:00:22;;;;;;;373.07;195.83;;;13.30;63.90;;;;;;5203344;28;20046;-30
2021/12/22 00:03:11;;;;;;;448.90;241.30;;;13.30;63.80;;;;;;5187259;28;20484;-31
2021/12/22 00:05:45;;;;;;;386.43;197.73;;;13.30;63.80;;;;;;5185828;28;20096;-30
2021/12/22 00:08:17;;;;;;;193.60;103.23;;;13.20;64.00;;;;;;5170016;28;20069;-30
2021/12/22 00:10:49;;;;;;;139.30;74.95;;;13.20;64.00;;;;;;5188058;28;20066;-30
2021/12/22 00:13:20;;;;;;;106.90;62.47;;;13.20;63.90;;;;;;5170487;28;20056;-30
2021/12/22 00:15:51;;;;;;;105.47;61.83;;;13.20;63.90;;;;;;5187599;28;20116;-30
2021/12/22 00:18:22;;;;;;;89.27;53.93;;;13.20;63.80;;;;;;5187567;28;20460;-30
2021/12/22 00:20:53;;;;;;;161.20;82.83;;;13.20;63.90;;;;;;5170384;28;20038;-30
2021/12/22 00:23:24;;;;;;;161.80;85.60;;;13.20;64.10;;;;;;5202973;28;20411;-30
2021/12/22 00:25:56;;;;;;;150.30;74.67;;;13.20;64.20;;;;;;5187550;28;20046;-30
2021/12/22 00:28:27;;;;;;;187.07;81.37;;;13.20;63.90;;;;;;5187598;28;20052;-30
2021/12/22 00:30:58;;;;;;;331.90;136.77;;;13.20;64.10;;;;;;5187123;28;20054;-30
2021/12/22 00:33:32;;;;;;;383.03;155.47;;;13.20;64.00;;;;;;5187532;28;20042;-30
2021/12/22 00:36:03;;;;;;;354.33;156.53;;;13.20;63.90;;;;;;5187321;28;20491;-30
2021/12/22 00:38:34;;;;;;;328.73;151.57;;;13.20;63.70;;;;;;5202543;28;20046;-30
2021/12/22 00:41:05;;;;;;;184.50;94.07;;;13.20;63.60;;;;;;5201399;28;20567;-30
2021/12/22 00:43:36;;;;;;;185.07;84.67;;;13.20;63.60;;;;;;5169676;28;20046;-30
2021/12/22 00:46:07;;;;;;;187.63;91.27;;;13.10;63.60;;;;;;5202017;28;20447;-30
2021/12/22 00:48:39;;;;;;;191.10;94.00;;;13.10;63.60;;;;;;5187264;28;20069;-30
2021/12/22 00:51:10;;;;;;;217.13;119.77;;;13.10;63.60;;;;;;5185813;28;20095;-31
2021/12/22 00:53:41;;;;;;;135.93;81.20;;;13.10;63.70;;;;;;5202162;28;20046;-30
2021/12/22 00:56:12;;;;;;;103.07;62.90;;;13.10;63.60;;;;;;5187285;28;20531;-31
2021/12/22 00:58:43;;;;;;;139.30;83.37;;;13.10;63.60;;;;;;5187174;28;20092;-31
2021/12/22 01:01:14;;;;;;;123.60;72.27;;;13.10;63.60;;;;;;5202297;28;20369;-30
2021/12/22 01:03:45;;;;;;;169.33;92.63;;;13.10;63.80;;;;;;5187069;28;20085;-30
2021/12/22 01:06:16;;;;;;;181.20;91.57;;;13.00;64.30;;;;;;5202092;28;20069;-30
2021/12/22 01:08:49;;;;;;;194.33;98.33;;;13.00;65.30;;;;;;5201943;28;20073;-30
2021/12/22 01:11:20;;;;;;;190.17;100.67;;;13.00;65.20;;;;;;5185573;28;20057;-30
2021/12/22 01:13:51;;;;;;;199.77;102.40;;;13.10;65.00;;;;;;5186992;28;20049;-31
2021/12/22 01:16:22;;;;;;;220.83;116.30;;;13.10;64.60;;;;;;5186774;28;20049;-31
2021/12/22 01:18:53;;;;;;;203.67;110.97;;;13.10;64.40;;;;;;5201891;28;20541;-30
2021/12/22 01:21:49;;;;;;;172.67;94.23;;;13.10;64.30;;;;;;5186965;28;20073;-31
2021/12/22 01:24:22;;;;;;;118.30;70.50;;;13.10;64.00;;;;;;5186424;28;20408;-31
2021/12/22 01:27:02;;;;;;;117.67;70.90;;;13.10;64.10;;;;;;5186642;28;20058;-31
2021/12/22 01:29:34;;;;;;;128.00;75.30;;;13.10;64.10;;;;;;5186571;28;20087;-30
2021/12/22 01:32:08;;;;;;;102.77;56.47;;;13.10;64.30;;;;;;5186623;28;20065;-30
2021/12/22 01:34:39;;;;;;;117.23;64.27;;;13.10;64.50;;;;;;5201487;28;20125;-30
2021/12/22 01:37:10;;;;;;;136.13;70.67;;;13.10;64.60;;;;;;5186524;28;20510;-30
2021/12/22 01:39:41;;;;;;;153.97;85.33;;;13.10;64.60;;;;;;5185044;28;20045;-30
2021/12/22 01:42:12;;;;;;;113.87;63.20;;;13.10;64.70;;;;;;5186378;28;20046;-31
2021/12/22 01:50:39;;;;;;;108.50;59.50;;;13.10;64.80;;;;;;5199353;28;20046;-30
2021/12/22 01:53:34;;;;;;;70.53;43.60;;;13.10;65.00;;;;;;5186452;28;20432;-30
2021/12/22 01:56:23;;;;;;;54.83;33.17;;;13.10;64.80;;;;;;5200641;28;20073;-30
2021/12/22 01:58:56;;;;;;;38.50;26.10;;;13.10;64.80;;;;;;5184770;28;20066;-31
2021/12/22 02:01:29;;;;;;;41.37;26.27;;;13.10;64.70;;;;;;5184982;28;20046;-31
2021/12/22 02:04:01;;;;;;;36.57;25.43;;;13.10;64.80;;;;;;5186365;28;20049;-31
2021/12/22 02:06:32;;;;;;;42.37;29.13;;;13.10;64.80;;;;;;5185899;28;20041;-30
2021/12/22 02:09:03;;;;;;;51.63;33.03;;;13.10;64.70;;;;;;5168944;28;20049;-31
2021/12/22 02:11:34;;;;;;;49.27;31.57;;;13.00;64.30;;;;;;5190016;28;20096;-30
2021/12/22 02:14:07;;;;;;;43.27;30.30;;;13.10;64.30;;;;;;5190061;28;20128;-31
2021/12/22 02:16:39;;;;;;;49.10;33.27;;;13.00;64.20;;;;;;5190030;28;20096;-31
2021/12/22 02:19:11;;;;;;;47.42;32.30;;;13.00;63.90;;;;;;5189951;28;20092;-31
2021/12/22 02:21:49;;;;;;;41.10;26.97;;;13.00;64.00;;;;;;5139329;28;20492;-31
2021/12/22 02:24:20;;;;;;;41.67;28.70;;;13.00;63.70;;;;;;5188260;28;20141;-31
2021/12/22 02:27:03;;;;;;;37.80;28.03;;;13.00;63.60;;;;;;5189872;28;20132;-31
2021/12/22 02:29:39;;;;;;;39.50;27.08;;;13.00;63.50;;;;;;5189714;28;20480;-31
2021/12/22 02:32:20;;;;;;;34.33;26.57;;;13.00;64.00;;;;;;5204692;28;20050;-30
2021/12/22 02:34:52;;;;;;;34.50;23.87;;;13.00;63.90;;;;;;5172426;28;20078;-30
2021/12/22 02:37:26;;;;;;;31.90;21.37;;;13.00;63.20;;;;;;5204355;28;20056;-30
2021/12/22 02:40:00;;;;;;;32.80;21.27;;;13.00;63.20;;;;;;5172006;28;20049;-31
2021/12/22 02:42:33;;;;;;;31.33;20.73;;;13.00;63.20;;;;;;5189798;28;20056;-31
2021/12/22 02:45:12;;;;;;;32.42;22.27;;;13.00;63.20;;;;;;5189355;28;20056;-31
2021/12/22 02:47:43;;;;;;;32.60;20.73;;;13.00;63.00;;;;;;5189546;28;20117;-31
2021/12/22 02:50:15;;;;;;;33.30;22.37;;;12.90;63.10;;;;;;5204735;28;20238;-31
2021/12/22 02:53:02;;;;;;;36.57;23.17;;;12.90;64.00;;;;;;5204348;28;20053;-31
2021/12/22 02:56:00;;;;;;;40.17;25.27;;;12.90;64.70;;;;;;5189333;28;20050;-30
2021/12/22 02:58:44;;;;;;;33.40;22.73;;;12.90;64.20;;;;;;5199868;28;20384;-31
2021/12/22 03:04:06;;;;;;;32.90;22.30;;;12.90;63.40;;;;;;5189378;28;20506;-30
2021/12/22 03:07:05;;;;;;;31.77;21.50;;;12.90;63.20;;;;;;5202737;28;20049;-30
2021/12/22 03:09:33;;;;;;;32.13;20.23;;;12.90;62.90;;;;;;5188245;28;20415;-31
2021/12/22 03:12:05;;;;;;;;;;;12.90;62.80;;;;;;5189675;28;20042;-31
2021/12/22 03:14:36;;;;;;;30.83;20.30;;;12.90;62.70;;;;;;5171273;28;19960;-30
2021/12/22 03:17:07;;;;;;;31.20;20.47;;;12.90;62.50;;;;;;5188544;28;20046;-30
2021/12/22 03:19:38;;;;;;;27.87;20.33;;;12.90;62.30;;;;;;5188901;28;20046;-30
2021/12/22 03:22:11;;;;;;;25.33;18.50;;;12.90;62.20;;;;;;5187338;28;20057;-30
2021/12/22 03:24:44;;;;;;;28.08;20.50;;;12.90;62.20;;;;;;5188504;28;20046;-31
2021/12/22 03:27:15;;;;;;;36.90;24.17;;;12.90;62.10;;;;;;5203749;28;20072;-30
2021/12/22 03:29:46;;;;;;;38.80;27.20;;;12.90;62.20;;;;;;5203840;28;20046;-30
2021/12/22 03:32:18;;;;;;;39.80;27.87;;;12.90;61.90;;;;;;5203600;28;20046;-30
2021/12/22 03:34:49;;;;;;;41.07;29.30;;;12.90;62.00;;;;;;5188817;28;20053;-30
2021/12/22 03:37:20;;;;;;;39.23;27.83;;;12.90;61.70;;;;;;5188437;28;20537;-30
2021/12/22 03:39:50;;;;;;;35.87;24.80;;;12.90;61.80;;;;;;5188541;28;20038;-31
2021/12/22 03:42:22;;;;;;;34.13;23.73;;;12.90;61.80;;;;;;5203695;28;20578;-30
2021/12/22 03:44:53;;;;;;;31.57;21.93;;;12.90;61.90;;;;;;5188012;28;20408;-30
2021/12/22 03:47:25;;;;;;;29.33;21.23;;;12.90;62.00;;;;;;5188596;28;20044;-30
2021/12/22 03:49:56;;;;;;;26.20;20.27;;;12.90;61.90;;;;;;5188282;28;20500;-31
2021/12/22 03:52:27;;;;;;;27.50;20.27;;;12.90;61.90;;;;;;5188305;28;20062;-31
2021/12/22 03:54:58;;;;;;;30.10;20.50;;;12.90;62.00;;;;;;5188165;28;20578;-33
2021/12/22 03:57:29;;;;;;;30.07;21.00;;;12.80;61.80;;;;;;5186910;28;20048;-32
2021/12/22 04:00:01;;;;;;;32.10;20.90;;;12.90;61.70;;;;;;5186984;28;20046;-31
2021/12/22 04:02:33;;;;;;;33.03;22.37;;;12.90;61.70;;;;;;5187970;28;20121;-33
2021/12/22 04:05:04;;;;;;;35.03;22.83;;;12.90;61.80;;;;;;5170536;28;20048;-31
2021/12/22 04:07:36;;;;;;;35.27;23.93;;;12.80;61.40;;;;;;5161488;28;20049;-32
2021/12/22 04:10:19;;;;;;;43.83;28.73;;;12.90;61.40;;;;;;5182715;28;20496;-31
2021/12/22 04:12:52;;;;;;;42.60;28.88;;;12.90;61.50;;;;;;5150006;28;20046;-33
2021/12/22 04:15:25;;;;;;;33.75;24.85;;;12.90;61.10;;;;;;5167444;28;20133;-30
2021/12/22 04:17:56;;;;;;;38.13;25.13;;;12.90;61.20;;;;;;5182267;28;20058;-32
2021/12/22 04:20:28;;;;;;;35.47;24.03;;;12.80;61.00;;;;;;5166267;28;20047;-31
2021/12/22 04:23:00;;;;;;;37.80;23.48;;;12.80;61.00;;;;;;5167333;28;20074;-30
2021/12/22 04:25:31;;;;;;;34.63;23.37;;;12.80;60.80;;;;;;5181692;28;20089;-32
2021/12/22 04:28:06;;;;;;;42.73;27.47;;;12.80;60.70;;;;;;5167256;28;20109;-33
2021/12/22 04:30:39;;;;;;;47.43;31.57;;;12.80;60.80;;;;;;5167028;28;20054;-32
2021/12/22 04:33:10;;;;;;;48.45;31.60;;;12.80;60.70;;;;;;5181927;28;20492;-31
2021/12/22 04:35:41;;;;;;;46.07;31.53;;;12.80;60.80;;;;;;5167112;28;20117;-30
2021/12/22 04:38:12;;;;;;;50.40;35.17;;;12.80;60.90;;;;;;5166873;28;20046;-30
2021/12/22 04:40:43;;;;;;;55.80;38.53;;;12.80;61.90;;;;;;5166982;28;20046;-31
2021/12/22 04:43:14;;;;;;;64.90;46.13;;;12.70;62.60;;;;;;5165188;28;20103;-30
2021/12/22 04:45:45;;;;;;;64.90;45.63;;;12.80;62.20;;;;;;5167110;28;20066;-32
2021/12/22 04:48:16;;;;;;;78.03;54.03;;;12.80;61.60;;;;;;5167013;28;20046;-31
2021/12/22 04:50:47;;;;;;;82.07;53.80;;;12.80;61.70;;;;;;5166947;28;20039;-31
2021/12/22 04:53:24;;;;;;;80.97;55.73;;;12.80;61.50;;;;;;5166522;28;20046;-30
2021/12/22 04:55:55;;;;;;;66.60;44.77;;;12.80;61.30;;;;;;5167057;28;20068;-29
2021/12/22 04:58:26;;;;;;;53.70;36.53;;;12.80;61.20;;;;;;5165666;28;20053;-29
2021/12/22 05:00:57;;;;;;;50.60;33.83;;;12.80;61.10;;;;;;5166508;28;20078;-30
2021/12/22 05:03:28;;;;;;;51.50;33.63;;;12.80;61.00;;;;;;5166646;28;20049;-32
2021/12/22 05:05:59;;;;;;;48.20;32.03;;;12.80;60.90;;;;;;5166248;28;20038;-29
2021/12/22 05:08:30;;;;;;;48.63;33.63;;;12.80;61.00;;;;;;5182698;28;20085;-30
2021/12/22 05:11:01;;;;;;;47.73;33.73;;;12.80;60.90;;;;;;5185685;28;20077;-31
2021/12/22 05:13:34;;;;;;;46.03;30.60;;;12.80;60.80;;;;;;5201807;28;20046;-32
2021/12/22 05:16:06;;;;;;;;;;;12.80;60.70;;;;;;5202307;28;20048;-31
2021/12/22 05:18:50;;;;;;;48.67;32.87;;;12.80;61.20;;;;;;5186315;28;19925;-30
2021/12/22 05:21:22;;;;;;;53.00;36.43;;;12.80;60.60;;;;;;5186952;28;20069;-32
2021/12/22 05:23:54;;;;;;;67.00;40.90;;;12.80;60.60;;;;;;5186540;28;20483;-33
2021/12/22 05:26:25;;;;;;;73.20;45.80;;;12.80;60.50;;;;;;5201615;28;20049;-30
2021/12/22 05:28:56;;;;;;;73.90;45.13;;;12.80;60.50;;;;;;5136000;28;20050;-31
2021/12/22 05:31:27;;;;;;;87.03;51.07;;;12.80;60.40;;;;;;5186417;28;20069;-30
2021/12/22 05:33:58;;;;;;;88.07;55.60;;;12.80;60.50;;;;;;5201734;28;20073;-31
2021/12/22 05:36:29;;;;;;;65.50;42.77;;;12.70;60.80;;;;;;5185229;28;20228;-30
2021/12/22 05:39:01;;;;;;;57.10;39.67;;;12.70;60.90;;;;;;5176275;28;20518;-31
2021/12/22 05:41:31;;;;;;;55.47;36.03;;;12.70;60.90;;;;;;5184834;28;20034;-30
2021/12/22 05:44:03;;;;;;;45.17;32.30;;;12.70;61.10;;;;;;5182271;28;20041;-30
2021/12/22 05:46:33;;;;;;;43.97;30.30;;;12.70;61.30;;;;;;5165064;28;20101;-29
2021/12/22 05:49:04;;;;;;;45.25;30.90;;;12.80;61.30;;;;;;5192026;28;20039;-29
2021/12/22 05:51:35;;;;;;;;;;;12.90;61.20;;;;;;5167892;28;20260;-30
2021/12/22 05:54:06;;;;;;;;;;;13.00;61.00;;;;;;5185446;28;19992;-30
2021/12/22 05:56:37;;;;;;;;;;;13.20;61.10;;;;;;5129451;28;19949;-31
2021/12/22 05:59:08;;;;;;;;;;;13.20;60.60;;;;;;5131212;28;19922;-30
2021/12/22 06:01:39;;;;;;;52.80;34.20;;;13.40;60.50;;;;;;5131368;28;20431;-30
2021/12/22 06:04:10;;;;;;;;;;;13.40;60.30;;;;;;5115774;28;20038;-28
2021/12/22 06:06:42;;;;;;;79.30;43.77;;;11.50;62.00;;;;;;5081521;29;19927;-29
2021/12/22 06:09:14;;;;;;;73.50;47.10;;;11.30;62.30;;;;;;5102631;29;20131;-29
2021/12/22 06:11:44;;;;;;;;;;;9.70;64.70;;;;;;5111316;28;20059;-28
2021/12/22 06:14:15;;;;;;;63.10;42.03;;;8.70;66.90;;;;;;5121110;29;19930;-30
2021/12/22 06:16:46;;;;;;;104.33;63.43;;;8.20;68.00;;;;;;5122645;29;20070;-30
2021/12/22 06:19:19;;;;;;;123.33;66.60;;;7.90;68.40;;;;;;5104697;29;20972;-30
2021/12/22 06:21:50;;;;;;;151.35;82.85;;;7.70;68.70;;;;;;5074407;29;20092;-31
2021/12/22 06:24:21;;;;;;;186.07;99.00;;;7.50;69.30;;;;;;5089611;29;20517;-29
2021/12/22 06:26:52;;;;;;;186.00;104.07;;;7.40;69.50;;;;;;5110313;29;20059;-30
2021/12/22 06:29:24;;;;;;;189.57;106.20;;;7.40;69.70;;;;;;5134623;28;20057;-29
2021/12/22 06:31:55;;;;;;;225.07;123.50;;;7.30;69.60;;;;;;5132603;28;20047;-29
2021/12/22 06:34:27;;;;;;;217.63;115.77;;;7.20;70.20;;;;;;5149752;28;20058;-28
2021/12/22 06:36:58;;;;;;;195.27;100.53;;;7.10;69.90;;;;;;5149440;28;20415;-28
2021/12/22 06:39:30;;;;;;;157.10;78.70;;;7.00;69.80;;;;;;5133089;28;20042;-30
2021/12/22 06:42:00;;;;;;;119.00;62.37;;;6.90;70.40;;;;;;5132792;28;20043;-28
2021/12/22 06:44:31;;;;;;;158.00;79.93;;;6.90;70.70;;;;;;5116637;28;20050;-30
2021/12/22 06:47:03;;;;;;;152.57;77.43;;;6.80;70.80;;;;;;5131670;28;20047;-28
2021/12/22 06:49:34;;;;;;;153.57;79.20;;;6.80;71.30;;;;;;5132482;28;20043;-30
2021/12/22 06:52:05;;;;;;;152.37;80.33;;;6.70;71.30;;;;;;5149342;28;20551;-29
2021/12/22 06:54:36;;;;;;;126.50;79.20;;;6.70;71.20;;;;;;5149147;28;20047;-28
2021/12/22 06:57:07;;;;;;;388.57;218.83;;;6.60;71.00;;;;;;5149213;28;20047;-29
2021/12/22 06:59:38;;;;;;;326.80;178.90;;;6.50;71.30;;;;;;5149128;28;20089;-29
2021/12/22 07:02:09;;;;;;;213.43;120.30;;;6.50;71.60;;;;;;5132030;28;20481;-30
2021/12/22 07:04:40;;;;;;;182.00;100.97;;;6.60;71.80;;;;;;5147903;28;20061;-31
2021/12/22 07:07:11;;;;;;;170.00;99.93;;;7.40;71.60;;;;;;5143639;28;20133;-32
2021/12/22 07:09:42;;;;;;;;;;;8.30;70.20;;;;;;5162958;28;20080;-30
2021/12/22 07:12:14;;;;;;;;;;;9.00;68.80;;;;;;5199554;28;19960;-30
2021/12/22 07:14:45;;;;;;;;;;;9.60;67.60;;;;;;5208076;28;20009;-30
2021/12/22 07:17:16;;;;;;;128.10;77.37;;;10.20;66.80;;;;;;5207439;28;20028;-30
2021/12/22 07:19:47;;;;;;;127.67;74.47;;;10.60;66.10;;;;;;5189872;28;20079;-30
2021/12/22 07:22:18;;;;;;;;;;;10.90;65.30;;;;;;5202902;28;20444;-30
2021/12/22 07:24:49;;;;;;;;;;;11.10;64.80;;;;;;5207892;28;20003;-30
2021/12/22 07:27:20;;;;;;;164.33;98.87;;;11.40;64.40;;;;;;5207382;28;19964;-30
2021/12/22 07:29:51;;;;;;;140.63;86.73;;;11.50;63.90;;;;;;5188693;28;20128;-29
2021/12/22 07:32:22;;;;;;;140.60;87.57;;;11.70;63.70;;;;;;5178238;28;20085;-30
2021/12/22 07:35:03;;;;;;;139.00;83.93;;;11.70;63.70;;;;;;5203689;28;20051;-30
2021/12/22 07:37:40;;;;;;;119.53;71.43;;;11.90;63.60;;;;;;5190417;28;20050;-30
2021/12/22 07:40:16;;;;;;;134.20;80.67;;;12.00;63.40;;;;;;5206865;28;20037;-30
2021/12/22 07:42:48;;;;;;;166.53;96.03;;;12.10;63.40;;;;;;5189654;28;20053;-30
2021/12/22 07:45:19;;;;;;;136.63;83.10;;;12.20;63.30;;;;;;5205149;28;20080;-30
2021/12/22 07:47:50;;;;;;;124.47;73.33;;;12.20;63.20;;;;;;5207008;28;20037;-30
2021/12/22 07:50:23;;;;;;;101.50;63.57;;;12.30;63.30;;;;;;5189015;28;20045;-30
2021/12/22 07:52:54;;;;;;;119.95;72.07;;;12.40;63.20;;;;;;5206946;28;20045;-29
2021/12/22 07:55:25;;;;;;;115.00;69.23;;;12.40;63.30;;;;;;5188267;28;20116;-32
2021/12/22 07:57:56;;;;;;;95.57;60.57;;;12.50;63.10;;;;;;5206818;28;20133;-30
2021/12/22 08:00:27;;;;;;;94.93;60.90;;;12.50;62.80;;;;;;5206564;28;20052;-30
2021/12/22 08:02:58;;;;;;;94.07;62.17;;;12.60;62.90;;;;;;5181093;28;20042;-30
2021/12/22 08:05:29;;;;;;;128.27;90.87;;;12.60;62.90;;;;;;5185959;28;20058;-30
2021/12/22 08:08:00;;;;;;;106.83;69.93;;;12.60;62.60;;;;;;5174318;28;20406;-29
2021/12/22 08:10:32;;;;;;;109.30;69.13;;;12.60;62.70;;;;;;5185811;28;20053;-32
2021/12/22 08:13:03;;;;;;;97.20;64.70;;;12.70;62.80;;;;;;5168327;28;20096;-30
2021/12/22 08:15:34;;;;;;;92.70;57.90;;;12.70;62.70;;;;;;5168178;28;20395;-29
2021/12/22 08:18:05;;;;;;;137.50;90.20;;;12.70;62.80;;;;;;5185627;28;20042;-32
2021/12/22 08:20:36;;;;;;;219.97;145.23;;;12.80;62.90;;;;;;5185559;28;20042;-31
2021/12/22 08:23:07;;;;;;;114.37;77.40;;;12.80;62.70;;;;;;5185755;28;20049;-32
2021/12/22 08:25:39;;;;;;;82.30;56.00;;;12.80;62.70;;;;;;5174763;28;20096;-30
2021/12/22 08:28:10;;;;;;;66.60;49.43;;;12.80;62.70;;;;;;5182604;28;20053;-32
2021/12/22 08:30:41;;;;;;;54.67;40.80;;;12.90;62.70;;;;;;5168338;28;20046;-29
2021/12/22 08:33:23;;;;;;;72.37;46.20;;;13.00;62.60;;;;;;5167695;28;20103;-29
2021/12/22 08:38:51;;;;;;;60.27;40.37;;;13.10;62.90;;;;;;5185730;28;20508;-29
2021/12/22 08:41:26;;;;;;;44.47;34.30;;;13.20;63.00;;;;;;5168616;28;20042;-32
2021/12/22 08:44:00;;;;;;;41.13;29.80;;;13.20;63.00;;;;;;5167897;28;20456;-32
2021/12/22 08:46:33;;;;;;;43.63;31.23;;;13.20;62.90;;;;;;5150753;28;20045;-30
2021/12/22 08:49:04;;;;;;;47.97;34.50;;;13.30;63.20;;;;;;5146439;28;20549;-32
2021/12/22 08:51:35;;;;;;;41.47;28.40;;;13.30;63.10;;;;;;5132362;28;20066;-32
2021/12/22 08:54:06;;;;;;;58.87;38.80;;;13.30;63.00;;;;;;5167870;28;20079;-32
2021/12/22 08:56:38;;;;;;;44.23;31.20;;;13.40;63.00;;;;;;5151547;28;20046;-32
2021/12/22 08:59:10;;;;;;;52.03;36.27;;;13.30;62.90;;;;;;5150348;28;20125;-30
2021/12/22 09:01:41;;;;;;;86.93;53.97;;;13.40;62.90;;;;;;5185167;28;20044;-31
2021/12/22 09:04:12;;;;;;;117.97;70.50;;;13.40;62.80;;;;;;5151444;28;20046;-32
2021/12/22 09:06:46;;;;;;;111.03;67.67;;;12.60;62.00;;;;;;5185303;28;20116;-29
2021/12/22 09:09:18;;;;;;;70.07;43.50;;;12.10;64.50;;;;;;5204942;28;20472;-29
2021/12/22 09:11:49;;;;;;;83.70;52.73;;;12.40;64.50;;;;;;5187715;28;20049;-31
2021/12/22 09:14:21;;;;;;;92.60;58.17;;;12.60;64.30;;;;;;5205202;28;20042;-29
2021/12/22 09:16:52;;;;;;;122.40;74.53;;;12.80;64.30;;;;;;5187914;28;20049;-31
2021/12/22 09:19:23;;;;;;;136.13;83.17;;;13.00;64.30;;;;;;5205074;28;20045;-30
2021/12/22 09:21:55;;;;;;;138.80;89.25;;;13.10;64.20;;;;;;5196814;28;20069;-32
2021/12/22 09:24:27;;;;;;;97.53;66.20;;;13.10;64.20;;;;;;5199619;28;20117;-30
2021/12/22 09:26:59;;;;;;;111.70;73.97;;;13.20;64.20;;;;;;5179384;28;20407;-30
2021/12/22 09:29:29;;;;;;;123.87;79.80;;;13.20;64.10;;;;;;5165915;28;20046;-32
2021/12/22 09:32:01;;;;;;;74.43;49.53;;;13.30;64.40;;;;;;5175932;28;20129;-31
2021/12/22 09:34:32;;;;;;;81.43;51.23;;;13.30;64.40;;;;;;5179838;28;20042;-29
2021/12/22 09:37:03;;;;;;;62.43;42.50;;;13.30;64.40;;;;;;5184551;28;20038;-29
2021/12/22 09:39:34;;;;;;;;;;;13.30;64.50;;;;;;5199052;28;20057;-30
2021/12/22 09:42:05;;;;;;;;;;;13.40;64.50;;;;;;5183895;28;19922;-30
2021/12/22 09:44:43;;;;;;;;;;;13.40;64.50;;;;;;5183388;28;20364;-29
2021/12/22 09:47:17;;;;;;;;;;;13.50;64.40;;;;;;5165560;28;20004;-30
2021/12/22 09:50:05;;;;;;;;;;;13.50;64.30;;;;;;5185195;28;20412;-30
2021/12/22 09:52:36;;;;;;;;;;;13.50;64.30;;;;;;5166988;28;20345;-31
2021/12/22 09:55:08;;;;;;;;;;;13.50;64.10;;;;;;5184110;28;19925;-30
2021/12/22 09:57:40;;;;;;;;;;;13.50;63.90;;;;;;5183629;28;25119;-31
2021/12/22 10:00:12;;;;;;;108.13;49.53;;;13.60;63.90;;;;;;5196077;28;20274;-29
2021/12/22 10:02:43;;;;;;;51.80;30.08;;;12.60;63.20;;;;;;5204683;28;20042;-29
2021/12/22 10:05:15;;;;;;;70.30;37.70;;;11.40;66.70;;;;;;5205035;28;20131;-29
2021/12/22 10:08:03;;;;;;;;;;;11.60;66.90;;;;;;5205210;28;20084;-30
2021/12/22 10:10:34;;;;;;;;;;;12.10;66.50;;;;;;5205247;28;20399;-30
2021/12/22 10:13:15;;;;;;;;;;;12.50;65.90;;;;;;5187783;28;19929;-30
2021/12/22 10:15:47;;;;;;;;;;;12.70;65.80;;;;;;5205391;28;20533;-30
2021/12/22 10:18:19;;;;;;;;;;;12.90;65.40;;;;;;5187628;28;20015;-30
2021/12/22 10:20:51;;;;;;;;;;;13.10;65.20;;;;;;5205096;28;20325;-31
2021/12/22 10:23:24;;;;;;;;;;;13.20;65.10;;;;;;5204753;28;19921;-30
2021/12/22 10:25:57;;;;;;;;;;;13.20;65.10;;;;;;5187248;28;20564;-31
2021/12/22 10:28:30;;;;;;;;;;;13.30;65.30;;;;;;5187297;28;19925;-30
2021/12/22 10:31:01;;;;;;;;;;;13.40;65.60;;;;;;5206771;28;20350;-30
2021/12/22 10:33:33;;;;;;;;;;;13.40;65.50;;;;;;5207257;28;20255;-31
2021/12/22 10:36:10;;;;;;;82.83;50.63;;;13.40;65.50;;;;;;5207509;28;19928;-30
2021/12/22 10:38:48;;;;;;;104.60;55.53;;;13.40;65.20;;;;;;5208128;28;20116;-30
2021/12/22 10:41:21;;;;;;;53.80;38.33;;;13.40;65.20;;;;;;5207835;28;20041;-30
2021/12/22 10:43:52;;;;;;;89.77;52.77;;;13.50;65.20;;;;;;5207102;28;20124;-31
2021/12/22 10:46:28;;;;;;;112.50;64.73;;;13.50;65.10;;;;;;5190454;28;20140;-30
2021/12/22 10:49:14;;;;;;;89.90;55.40;;;13.50;65.50;;;;;;5181338;28;20407;-30
2021/12/22 10:51:57;;;;;;;73.40;46.83;;;13.50;65.50;;;;;;5206933;28;20053;-31
2021/12/22 10:54:36;;;;;;;49.87;32.57;;;13.50;65.30;;;;;;5207743;28;20057;-31
2021/12/22 10:57:11;;;;;;;47.83;30.97;;;13.50;65.20;;;;;;5207635;28;20052;-30
2021/12/22 10:59:49;;;;;;;34.90;23.93;;;13.40;64.80;;;;;;5207658;28;20037;-30
2021/12/22 11:02:34;;;;;;;46.23;30.40;;;13.40;64.90;;;;;;5205776;28;20049;-30
2021/12/22 11:05:17;;;;;;;49.13;29.97;;;13.40;65.10;;;;;;5197419;28;20438;-30
2021/12/22 11:07:48;;;;;;;44.33;28.63;;;13.40;65.10;;;;;;5207799;28;20057;-30
2021/12/22 11:10:37;;;;;;;41.77;26.10;;;13.40;65.20;;;;;;5207682;28;20069;-30
2021/12/22 11:13:07;;;;;;;36.37;23.57;;;13.30;64.80;;;;;;5207505;28;20045;-30
2021/12/22 11:15:43;;;;;;;34.53;23.97;;;13.40;65.00;;;;;;5189938;28;20526;-31
2021/12/22 11:18:34;;;;;;;38.10;24.60;;;13.40;65.10;;;;;;5190359;28;20045;-30
2021/12/22 11:21:16;;;;;;;33.30;21.77;;;13.40;65.30;;;;;;5189713;28;20435;-30
2021/12/22 11:23:46;;;;;;;34.60;22.90;;;13.40;65.20;;;;;;5190423;28;20054;-29
2021/12/22 11:26:18;;;;;;;33.87;23.67;;;13.40;65.20;;;;;;5207190;28;20069;-30
2021/12/22 11:28:49;;;;;;;37.27;25.10;;;13.40;65.30;;;;;;5207103;28;20045;-30
2021/12/22 11:31:21;;;;;;;50.30;31.90;;;13.50;65.00;;;;;;5189186;28;20052;-30
2021/12/22 11:33:52;;;;;;;48.63;30.93;;;13.50;64.90;;;;;;5189648;28;20483;-30
2021/12/22 11:36:23;;;;;;;42.47;28.77;;;13.50;65.30;;;;;;5175761;28;20053;-32
2021/12/22 11:38:56;;;;;;;43.83;27.90;;;13.50;64.90;;;;;;5189759;28;20114;-31
2021/12/22 11:41:27;;;;;;;46.93;30.50;;;13.50;65.00;;;;;;5175016;28;20054;-31
2021/12/22 11:43:58;;;;;;;34.77;23.03;;;13.60;64.90;;;;;;5206287;28;20034;-30
2021/12/22 11:46:30;;;;;;;34.73;23.40;;;13.60;65.00;;;;;;5172826;28;20490;-29
2021/12/22 11:49:01;;;;;;;34.23;24.77;;;13.60;65.30;;;;;;5169334;28;20454;-30
2021/12/22 11:51:34;;;;;;;36.20;23.73;;;13.50;65.50;;;;;;5168362;28;20051;-30
2021/12/22 11:54:09;;;;;;;31.58;22.73;;;13.50;65.40;;;;;;5168574;28;20037;-32
2021/12/22 11:56:45;;;;;;;37.40;24.83;;;13.50;65.40;;;;;;5199743;28;20125;-30
2021/12/22 11:59:37;;;;;;;37.10;24.87;;;13.50;65.30;;;;;;5206291;28;20053;-31
2021/12/22 12:02:24;;;;;;;30.33;21.88;;;13.50;65.80;;;;;;5188552;28;20041;-29
2021/12/22 12:05:11;;;;;;;31.17;21.13;;;13.50;65.70;;;;;;5166301;28;20049;-31
2021/12/22 12:07:54;;;;;;;28.33;20.93;;;13.50;65.70;;;;;;5173622;28;20070;-32
2021/12/22 12:10:45;;;;;;;32.55;22.45;;;13.50;65.80;;;;;;5190122;28;20037;-29
2021/12/22 12:13:26;;;;;;;32.67;22.57;;;13.50;66.10;;;;;;5164015;28;20046;-31
2021/12/22 12:22:10;;;;;;;48.67;31.90;;;13.50;66.40;;;;;;5170110;28;20087;-31
2021/12/22 12:24:44;;;;;;;37.27;26.50;;;13.60;66.50;;;;;;5206215;28;20041;-29
2021/12/22 12:27:34;;;;;;;96.70;58.87;;;13.60;66.40;;;;;;5204999;28;20080;-29
2021/12/22 12:30:13;;;;;;;45.27;29.97;;;13.60;66.60;;;;;;5206236;28;20403;-32
2021/12/22 12:32:50;;;;;;;51.70;33.27;;;13.60;66.70;;;;;;5206012;28;20046;-30
2021/12/22 12:35:23;;;;;;;65.03;41.33;;;13.60;67.00;;;;;;5204744;28;20121;-32
2021/12/22 12:38:17;;;;;;;67.53;44.28;;;13.60;66.80;;;;;;5205715;28;20045;-30
2021/12/22 12:40:57;;;;;;;42.20;29.35;;;13.60;67.10;;;;;;5206049;28;20513;-30
2021/12/22 12:43:44;;;;;;;47.50;29.70;;;13.60;67.90;;;;;;5205755;28;20116;-30
2021/12/22 12:46:21;;;;;;;46.37;31.10;;;13.50;67.70;;;;;;5205676;28;20069;-30
2021/12/22 12:49:04;;;;;;;43.53;28.73;;;13.50;67.10;;;;;;5205598;28;20049;-30
2021/12/22 12:51:42;;;;;;;48.05;32.05;;;13.40;67.00;;;;;;5205484;28;20042;-30
2021/12/22 12:54:24;;;;;;;40.07;26.37;;;13.40;67.40;;;;;;5205587;28;20040;-31
2021/12/22 12:57:16;;;;;;;31.73;21.93;;;13.40;67.30;;;;;;5204192;28;20060;-32
2021/12/22 12:59:53;;;;;;;31.70;21.70;;;13.40;67.00;;;;;;5205013;28;20092;-29
2021/12/22 13:02:29;;;;;;;52.83;33.13;;;13.40;66.50;;;;;;5188697;28;20059;-32
2021/12/22 13:05:03;;;;;;;87.03;57.78;;;13.40;67.30;;;;;;5205522;28;20470;-32
2021/12/22 13:07:34;;;;;;;63.20;41.27;;;13.40;67.20;;;;;;5205057;28;20072;-32
2021/12/22 13:10:13;;;;;;;43.17;31.50;;;13.40;67.40;;;;;;5171506;28;20038;-31
2021/12/22 13:18:28;;;;;;;70.37;43.63;;;13.40;67.70;;;;;;5190550;28;20034;-32
2021/12/22 13:21:06;;;;;;;72.80;45.90;;;13.40;67.70;;;;;;5188171;28;20060;-30
2021/12/22 13:23:37;;;;;;;69.63;46.03;;;13.30;67.70;;;;;;5204163;28;20048;-32
2021/12/22 13:26:08;;;;;;;60.77;40.87;;;13.30;67.80;;;;;;5204871;28;20041;-32
2021/12/22 13:28:39;;;;;;;69.53;43.17;;;13.30;67.80;;;;;;5187786;28;20046;-30